Time;durP1;ratioP1;P1;durP2;ratioP2;P2;SDS_P1;SDS_P2;PMS_P1;PMS_P2;Temp;Humidity;BMP_temperature;BMP_pressure;BME280_temperature;BME280_humidity;BME280_pressure;Samples;Min_cycle;Max_cycle;Signal;HPM_P1;HPM_P2
2022/03/12 00:00:09;;;;;;;16.73;5.15;;;;;;;-2.93;31.18;100567.50;4972349;28;20039;-80
2022/03/12 00:02:39;;;;;;;15.88;5.18;;;;;;;-2.91;31.70;100571.00;4970376;28;20075;-81
2022/03/12 00:05:08;;;;;;;17.35;5.70;;;;;;;-2.96;31.96;100568.97;4958533;28;20055;-80
2022/03/12 00:07:40;;;;;;;14.65;5.22;;;;;;;-2.95;31.74;100570.72;4966759;28;21628;-81
2022/03/12 00:10:10;;;;;;;23.38;5.82;;;;;;;-2.93;31.73;100569.16;4940192;28;20093;-82
2022/03/12 00:12:37;;;;;;;18.58;5.55;;;;;;;-2.97;31.77;100563.00;4955095;28;20450;-80
2022/03/12 00:15:09;;;;;;;17.58;5.22;;;;;;;-2.98;31.84;100560.38;4924763;28;20099;-80
2022/03/12 00:17:39;;;;;;;17.23;5.78;;;;;;;-2.99;32.12;100581.56;4958241;28;20043;-82
2022/03/12 00:20:12;;;;;;;14.18;5.53;;;;;;;-3.06;31.69;100557.38;4957859;28;20051;-82
2022/03/12 00:22:45;;;;;;;15.57;5.07;;;;;;;-2.98;32.27;100566.34;4942882;28;20039;-81
2022/03/12 00:25:13;;;;;;;16.55;5.82;;;;;;;-2.76;31.96;100580.31;4956361;28;20035;-81
2022/03/12 00:27:39;;;;;;;22.42;6.25;;;;;;;-2.88;31.90;100555.03;4937384;29;20422;-80
2022/03/12 00:30:07;;;;;;;23.00;6.47;;;;;;;-2.63;31.90;100579.34;4936537;28;20053;-79
2022/03/12 00:32:37;;;;;;;24.17;7.30;;;;;;;-2.62;31.98;100566.69;4945737;28;20046;-80
2022/03/12 00:35:09;;;;;;;21.70;6.78;;;;;;;-2.45;31.88;100564.22;4958386;28;20427;-79
2022/03/12 00:37:35;;;;;;;26.52;6.25;;;;;;;-2.42;31.94;100561.81;4927637;28;20043;-81
2022/03/12 00:40:02;;;;;;;22.70;6.85;;;;;;;-2.38;32.26;100566.31;4930095;28;20094;-81
2022/03/12 00:42:30;;;;;;;24.13;6.88;;;;;;;-2.72;32.61;100501.59;4917124;28;20831;-80
2022/03/12 00:44:57;;;;;;;17.88;5.78;;;;;;;-2.33;32.25;100551.28;4932448;28;20040;-79
2022/03/12 00:47:26;;;;;;;17.58;6.00;;;;;;;-2.21;32.04;100562.16;4950302;28;20038;-80
2022/03/12 00:49:53;;;;;;;25.08;6.63;;;;;;;-2.20;32.91;100547.72;4941307;28;20656;-79
2022/03/12 00:52:20;;;;;;;19.73;7.15;;;;;;;-2.20;32.54;100543.50;4918457;28;20392;-79
2022/03/12 00:54:46;;;;;;;15.68;5.60;;;;;;;-2.14;32.93;100542.94;4940648;28;20055;-79
2022/03/12 00:57:13;;;;;;;15.10;5.78;;;;;;;-2.12;33.04;100533.72;4924996;28;20502;-79
2022/03/12 00:59:40;;;;;;;16.92;5.63;;;;;;;-2.21;32.46;100523.91;4920440;28;20467;-79
2022/03/12 01:02:14;;;;;;;17.07;5.97;;;;;;;-2.15;32.66;100538.63;4930219;28;20079;-80
2022/03/12 01:04:42;;;;;;;17.23;5.55;;;;;;;-2.37;32.86;100506.00;4968832;28;20290;-81
2022/03/12 01:07:12;;;;;;;14.18;6.15;;;;;;;-2.15;32.89;100542.09;4948744;28;20047;-79
2022/03/12 01:09:39;;;;;;;18.80;6.55;;;;;;;-2.13;33.03;100540.50;4954587;28;20067;-79
2022/03/12 01:12:07;;;;;;;17.65;5.97;;;;;;;-2.12;33.04;100541.38;4955838;28;20023;-81
2022/03/12 01:14:34;;;;;;;18.42;5.90;;;;;;;-2.16;33.10;100522.47;4955040;28;20099;-79
2022/03/12 01:17:00;;;;;;;15.55;5.90;;;;;;;-2.10;33.27;100526.16;4970749;28;20047;-80
2022/03/12 01:19:26;;;;;;;14.07;6.03;;;;;;;-2.23;32.61;100517.84;4954360;28;20047;-81
2022/03/12 01:21:53;;;;;;;16.00;6.13;;;;;;;-2.25;33.35;100527.06;4961718;28;20031;-78
2022/03/12 01:24:19;;;;;;;16.25;6.40;;;;;;;-2.35;33.29;100501.88;4953995;28;20107;-80
2022/03/12 01:26:45;;;;;;;15.75;6.03;;;;;;;-2.45;33.45;100500.50;4951657;28;20043;-79
2022/03/12 01:29:12;;;;;;;20.45;6.30;;;;;;;-2.47;33.44;100500.41;4971181;28;20084;-81
2022/03/12 01:31:39;;;;;;;19.88;6.05;;;;;;;-2.38;33.16;100514.44;4971827;28;20078;-80
2022/03/12 01:34:06;;;;;;;20.52;6.45;;;;;;;-2.57;33.66;100493.06;4971136;28;20061;-82
2022/03/12 01:36:32;;;;;;;24.02;6.50;;;;;;;-2.50;34.02;100507.00;4954757;28;20071;-81
2022/03/12 01:38:59;;;;;;;13.13;6.15;;;;;;;-2.43;33.45;100522.72;4971562;28;20034;-80
2022/03/12 01:41:29;;;;;;;42.33;8.55;;;;;;;-2.50;34.18;100507.00;4955985;28;20027;-81
2022/03/12 01:43:57;;;;;;;27.83;7.63;;;;;;;-2.52;34.08;100517.09;4954157;28;20127;-80
2022/03/12 01:46:42;;;;;;;26.33;7.18;;;;;;;-2.65;34.25;100501.94;4943930;28;20047;-80
2022/03/12 01:49:16;;;;;;;24.23;6.55;;;;;;;-2.62;34.29;100517.41;4956029;28;20392;-79
2022/03/12 01:51:45;;;;;;;25.42;6.70;;;;;;;-2.63;34.75;100505.44;4932947;28;20618;-80
2022/03/12 01:54:11;;;;;;;31.10;6.90;;;;;;;-2.58;34.49;100511.69;4940587;28;20043;-82
2022/03/12 01:56:41;;;;;;;25.20;6.70;;;;;;;-2.85;34.34;100453.28;4924932;28;20163;-80
2022/03/12 01:59:07;;;;;;;21.00;6.05;;;;;;;-2.43;34.43;100521.84;4939687;28;20038;-82
2022/03/12 02:01:33;;;;;;;18.08;5.93;;;;;;;-2.48;34.65;100498.63;4939288;28;20110;-79
2022/03/12 02:04:00;;;;;;;13.07;6.40;;;;;;;-2.53;34.12;100479.66;4958187;28;20051;-79
2022/03/12 02:06:28;;;;;;;15.15;6.30;;;;;;;-2.34;34.14;100511.28;4904714;28;20063;-83
2022/03/12 02:08:58;;;;;;;23.45;6.25;;;;;;;-2.34;34.22;100511.28;4956194;28;20427;-80
2022/03/12 02:11:30;;;;;;;21.73;6.28;;;;;;;-2.46;33.98;100491.09;4941714;28;20137;-79
2022/03/12 02:14:10;;;;;;;18.05;6.70;;;;;;;-2.36;34.24;100502.66;4937424;28;20043;-80
2022/03/12 02:16:37;;;;;;;28.70;7.68;;;;;;;-2.28;34.06;100509.03;4909039;28;20094;-79
2022/03/12 02:19:04;;;;;;;18.80;6.65;;;;;;;-2.25;34.13;100501.56;4938909;28;20047;-79
2022/03/12 02:21:56;;;;;;;22.38;6.82;;;;;;;-2.31;34.47;100506.31;4931744;28;20051;-80
2022/03/12 02:24:26;;;;;;;21.35;6.80;;;;;;;-2.55;34.65;100467.63;4913462;28;20054;-79
2022/03/12 02:26:54;;;;;;;18.63;7.10;;;;;;;-2.28;34.87;100509.94;4939595;28;20050;-81
2022/03/12 02:29:22;;;;;;;21.88;7.32;;;;;;;-2.23;35.31;100501.66;4936309;28;20146;-79
2022/03/12 02:31:50;;;;;;;21.23;6.38;;;;;;;-2.29;35.15;100486.88;4938143;28;20122;-82
2022/03/12 02:34:21;;;;;;;12.82;5.93;;;;;;;-2.21;35.71;100494.97;4920551;28;20043;-79
2022/03/12 02:36:49;;;;;;;20.85;7.10;;;;;;;-2.28;35.69;100468.25;4920906;28;20514;-80
2022/03/12 02:39:17;;;;;;;29.33;6.55;;;;;;;-2.17;35.66;100473.91;4951305;28;20049;-80
2022/03/12 02:41:43;;;;;;;15.43;7.25;;;;;;;-2.18;35.62;100479.81;4952704;28;20043;-79
2022/03/12 02:44:17;;;;;;;17.38;5.97;;;;;;;-2.17;35.70;100473.91;4953525;28;20043;-81
2022/03/12 02:47:19;;;;;;;23.23;6.60;;;;;;;-2.12;35.68;100485.25;4939054;28;20039;-79
2022/03/12 02:49:49;;;;;;;25.55;7.40;;;;;;;-2.10;35.99;100481.13;4956229;28;20043;-81
2022/03/12 02:52:17;;;;;;;18.65;8.18;;;;;;;-2.14;35.91;100474.97;4937370;28;20054;-79
2022/03/12 02:54:44;;;;;;;17.38;7.82;;;;;;;-2.03;35.82;100483.19;4938993;28;20071;-80
2022/03/12 02:57:11;;;;;;;17.88;6.40;;;;;;;-2.02;35.61;100481.50;4937486;28;20122;-80
2022/03/12 02:59:43;;;;;;;16.42;7.50;;;;;;;-2.03;35.50;100483.19;4921487;28;20043;-79
2022/03/12 03:02:12;;;;;;;19.88;7.30;;;;;;;-2.05;35.91;100487.34;4916376;28;20058;-81
2022/03/12 03:04:40;;;;;;;19.02;7.03;;;;;;;-2.21;35.75;100462.69;4943028;28;20039;-80
2022/03/12 03:07:08;;;;;;;19.88;6.63;;;;;;;-2.09;35.60;100484.53;4920882;28;20039;-79
2022/03/12 03:09:35;;;;;;;19.50;6.93;;;;;;;-2.16;35.95;100473.13;4943991;28;20067;-79
2022/03/12 03:12:03;;;;;;;18.23;6.80;;;;;;;-2.14;36.28;100474.97;4959376;28;20039;-80
2022/03/12 03:14:31;;;;;;;16.23;6.63;;;;;;;-2.41;35.61;100436.13;4929482;28;20054;-82
2022/03/12 03:17:00;;;;;;;18.42;5.95;;;;;;;-2.47;35.92;100454.50;4938291;28;20039;-80
2022/03/12 03:19:28;;;;;;;13.50;6.47;;;;;;;-2.47;36.17;100443.47;4956550;28;20045;-81
2022/03/12 03:21:56;;;;;;;24.88;6.53;;;;;;;-2.30;36.37;100462.19;4968674;28;20056;-79
2022/03/12 03:24:23;;;;;;;17.23;6.75;;;;;;;-2.43;36.38;100440.28;4957181;28;20057;-79
2022/03/12 03:26:54;;;;;;;17.25;6.93;;;;;;;-2.49;36.55;100407.66;4934612;28;20046;-81
2022/03/12 03:29:21;;;;;;;15.90;6.93;;;;;;;-2.34;36.63;100414.41;4951847;28;20047;-81
2022/03/12 03:31:48;;;;;;;18.42;6.45;;;;;;;-1.99;36.21;100461.28;4950716;28;20106;-80
2022/03/12 03:34:16;;;;;;;19.85;6.75;;;;;;;-1.99;36.05;100434.09;4903380;28;20039;-79
2022/03/12 03:36:42;;;;;;;15.43;6.07;;;;;;;-1.93;36.38;100430.09;4935168;28;21899;-80
2022/03/12 03:39:08;;;;;;;16.50;5.82;;;;;;;-1.93;36.24;100425.88;4935088;28;20053;-79
2022/03/12 03:41:35;;;;;;;20.27;6.78;;;;;;;-1.96;36.44;100405.31;4933950;28;20113;-82
2022/03/12 03:44:01;;;;;;;22.35;7.05;;;;;;;-1.72;36.61;100440.53;4935113;28;20039;-79
2022/03/12 03:46:28;;;;;;;27.27;7.55;;;;;;;-1.76;36.61;100436.94;4903395;28;20042;-81
2022/03/12 03:48:55;;;;;;;16.85;6.53;;;;;;;-1.78;36.83;100430.91;4935475;28;20102;-80
2022/03/12 03:51:22;;;;;;;18.83;7.07;;;;;;;-1.68;36.52;100442.47;4951808;28;20127;-80
2022/03/12 03:53:49;;;;;;;20.35;6.90;;;;;;;-1.78;36.56;100430.00;4922670;28;20061;-80
2022/03/12 03:56:16;;;;;;;21.25;6.68;;;;;;;-1.70;36.62;100439.81;4938499;28;20047;-78
2022/03/12 03:58:43;;;;;;;18.58;6.18;;;;;;;-1.54;36.46;100467.00;4967059;28;20210;-80
2022/03/12 04:01:15;;;;;;;23.05;7.50;;;;;;;-1.55;36.69;100449.06;4963404;28;20043;-80
2022/03/12 04:03:48;;;;;;;25.88;7.53;;;;;;;-1.53;36.85;100444.88;4934487;28;20066;-80
2022/03/12 04:06:15;;;;;;;22.55;8.48;;;;;;;-1.44;36.69;100464.91;4934780;28;20043;-80
2022/03/12 04:08:43;;;;;;;26.95;9.20;;;;;;;-1.49;36.64;100457.00;4919807;28;21462;-81
2022/03/12 04:11:15;;;;;;;31.23;9.88;;;;;;;-1.37;37.08;100475.50;4950846;28;20110;-80
2022/03/12 04:13:41;;;;;;;20.58;8.40;;;;;;;-1.48;37.29;100442.59;4934523;28;20047;-78
2022/03/12 04:16:07;;;;;;;35.22;8.35;;;;;;;-1.37;37.26;100442.31;4950930;28;20043;-80
2022/03/12 04:18:35;;;;;;;27.60;8.27;;;;;;;-1.17;36.93;100469.63;4906169;28;20046;-80
2022/03/12 04:21:01;;;;;;;21.60;7.25;;;;;;;-1.02;37.05;100484.84;4953854;28;20194;-79
2022/03/12 04:23:28;;;;;;;22.75;7.43;;;;;;;-1.05;37.34;100465.13;4918910;28;20039;-80
2022/03/12 04:25:57;;;;;;;24.52;8.40;;;;;;;-1.00;36.94;100462.78;4951646;28;20051;-80
2022/03/12 04:28:27;;;;;;;21.98;7.65;;;;;;;-1.50;37.03;100370.16;4939082;28;20043;-80
2022/03/12 04:30:53;;;;;;;26.02;7.70;;;;;;;-0.86;37.01;100461.75;4917600;28;20050;-80
2022/03/12 04:33:19;;;;;;;23.25;7.72;;;;;;;-0.63;37.12;100483.31;4952267;28;20042;-80
2022/03/12 04:35:48;;;;;;;31.30;8.07;;;;;;;-0.55;37.22;100483.69;4935982;28;20042;-79
2022/03/12 04:38:15;;;;;;;18.83;7.18;;;;;;;-0.50;36.97;100492.47;4937791;28;20043;-81
2022/03/12 04:40:46;;;;;;;19.52;7.65;;;;;;;-0.58;37.35;100472.44;4951191;28;20074;-81
2022/03/12 04:43:16;;;;;;;19.00;7.05;;;;;;;-0.54;37.60;100474.31;4951318;28;20054;-83
2022/03/12 04:45:46;;;;;;;19.90;6.25;;;;;;;-0.48;37.34;100484.84;4928946;28;20110;-79
2022/03/12 04:48:17;;;;;;;17.40;5.38;;;;;;;-0.53;37.89;100474.41;4946633;28;20133;-81
2022/03/12 04:51:02;;;;;;;10.65;5.45;;;;;;;-0.49;38.01;100499.31;4938238;28;20144;-81
2022/03/12 04:53:32;;;;;;;17.67;6.28;;;;;;;-0.32;38.00;100501.78;4953875;28;20047;-81
2022/03/12 04:56:00;;;;;;;15.07;6.13;;;;;;;-0.32;38.21;100486.44;4954451;28;20043;-81
2022/03/12 04:58:28;;;;;;;10.00;4.53;;;;;;;-0.10;38.05;100492.53;4970437;28;20043;-80
2022/03/12 05:00:54;;;;;;;10.63;5.05;;;;;;;-0.06;38.11;100494.44;4959923;28;20032;-82
2022/03/12 05:03:23;;;;;;;10.63;4.38;;;;;;;0.04;38.28;100500.84;4940635;28;20136;-80
2022/03/12 05:06:03;;;;;;;15.45;4.85;;;;;;;0.14;38.72;100498.75;4929267;28;20046;-83
2022/03/12 05:08:46;;;;;;;7.82;3.95;;;;;;;-0.44;38.37;100373.38;4931727;28;20047;-79
2022/03/12 05:11:12;;;;;;;9.88;4.07;;;;;;;0.42;39.02;100497.41;4917433;28;20039;-79
2022/03/12 05:13:39;;;;;;;7.63;3.92;;;;;;;0.43;38.30;100447.97;4934342;28;20438;-80
2022/03/12 05:16:17;;;;;;;8.50;3.78;;;;;;;0.76;38.79;100492.88;4933697;28;20102;-82
2022/03/12 05:18:43;;;;;;;5.85;3.50;;;;;;;0.88;38.25;100478.00;4933053;28;20117;-81
2022/03/12 05:21:09;;;;;;;8.60;4.07;;;;;;;0.84;38.43;100441.94;4935363;28;20067;-83
2022/03/12 05:23:37;;;;;;;6.78;3.10;;;;;;;0.97;38.71;100435.63;4952397;28;20058;-82
2022/03/12 05:26:10;;;;;;;7.15;3.53;;;;;;;1.25;38.25;100463.22;4935122;28;20047;-81
2022/03/12 05:28:37;;;;;;;6.90;3.40;;;;;;;1.06;37.98;100397.50;4953938;28;20043;-81
2022/03/12 05:31:04;;;;;;;9.35;3.25;;;;;;;1.33;38.33;100425.91;4904441;28;20139;-81
2022/03/12 05:33:31;;;;;;;6.75;3.25;;;;;;;1.40;37.80;100423.59;4916904;28;20047;-82
2022/03/12 05:36:01;;;;;;;6.30;3.17;;;;;;;1.37;37.86;100411.53;4937379;28;20043;-80
2022/03/12 05:38:34;;;;;;;7.10;3.53;;;;;;;1.79;38.10;100487.50;4957941;28;20047;-82
2022/03/12 05:41:10;;;;;;;6.68;3.35;;;;;;;1.58;38.38;100462.75;4936419;28;20043;-81
2022/03/12 05:43:47;;;;;;;5.53;2.97;;;;;;;1.82;37.69;100507.28;4948414;28;20047;-83
2022/03/12 05:46:41;;;;;;;7.57;3.17;;;;;;;1.62;37.89;100456.09;4930717;28;20070;-84
2022/03/12 05:49:30;;;;;;;7.10;3.22;;;;;;;1.35;38.32;100395.22;4954017;28;20079;-83
2022/03/12 05:51:59;;;;;;;4.68;2.97;;;;;;;1.36;37.95;100394.41;4948831;28;20039;-80
2022/03/12 05:54:26;;;;;;;5.50;2.97;;;;;;;1.56;38.22;100440.44;4957629;28;20418;-78
2022/03/12 05:56:52;;;;;;;10.85;3.22;;;;;;;1.54;38.79;100416.41;4927871;28;20046;-81
2022/03/12 05:59:23;;;;;;;6.55;3.00;;;;;;;1.93;39.08;100452.97;4911084;28;20035;-81
2022/03/12 06:01:52;;;;;;;5.70;3.17;;;;;;;2.06;38.31;100438.88;4932621;28;20058;-80
2022/03/12 06:04:27;;;;;;;6.38;3.53;;;;;;;2.03;38.89;100420.78;4951608;28;20035;-81
2022/03/12 06:07:14;;;;;;;7.03;2.80;;;;;;;2.48;38.75;100463.44;4938571;28;20483;-82
2022/03/12 06:10:31;;;;;;;6.45;3.20;;;;;;;2.40;38.94;100398.09;4961460;28;20054;-81
2022/03/12 06:13:10;;;;;;;7.28;3.05;;;;;;;2.36;38.33;100384.25;4954576;28;20071;-80
2022/03/12 06:15:58;;;;;;;6.70;3.35;;;;;;;2.81;38.71;100420.84;4949591;28;20043;-80
2022/03/12 06:18:32;;;;;;;4.72;3.03;;;;;;;3.19;38.51;100453.75;4948660;28;20045;-79
2022/03/12 06:21:21;;;;;;;9.20;3.38;;;;;;;2.75;37.82;100390.66;4942861;28;20043;-81
2022/03/12 06:23:54;;;;;;;5.13;3.40;;;;;;;3.10;38.21;100469.75;4965308;28;20063;-81
2022/03/12 06:26:23;;;;;;;6.60;3.13;;;;;;;3.03;38.98;100478.09;4940197;28;20455;-81
2022/03/12 06:28:53;;;;;;;7.53;3.72;;;;;;;2.75;38.13;100423.22;4923018;28;20051;-79
2022/03/12 06:31:20;;;;;;;4.85;3.00;;;;;;;3.05;38.38;100474.75;4948229;28;20094;-80
2022/03/12 06:33:49;;;;;;;7.82;3.13;;;;;;;2.47;37.95;100381.19;4912936;29;20051;-80
2022/03/12 06:36:15;;;;;;;6.03;3.60;;;;;;;2.68;38.05;100419.56;4915150;28;20067;-79
2022/03/12 06:38:48;;;;;;;14.40;3.80;;;;;;;2.95;38.74;100454.72;4936740;29;20052;-81
2022/03/12 06:41:20;;;;;;;7.80;3.72;;;;;;;2.81;38.30;100431.13;4915695;29;20117;-81
2022/03/12 06:44:02;;;;;;;10.73;5.22;;;;;;;2.37;38.03;100369.72;4917882;29;20427;-81
2022/03/12 06:50:24;;;;;;;6.47;3.65;;;;;;;2.83;38.14;100414.94;4927643;29;20052;-82
2022/03/12 06:53:11;;;;;;;9.48;3.17;;;;;;;2.44;37.84;100366.53;4912207;29;20046;-81
2022/03/12 06:55:43;;;;;;;5.93;3.08;;;;;;;2.29;37.84;100359.19;4899430;29;20126;-79
2022/03/12 06:59:31;;;;;;;6.57;3.42;;;;;;;2.09;38.04;100353.38;4904323;29;20052;-79
2022/03/12 07:04:51;;;;;;;7.85;3.63;;;;;;;2.27;38.21;100401.94;4946985;29;20051;-80
2022/03/12 07:07:18;;;;;;;6.25;3.35;;;;;;;2.66;38.40;100452.03;4953674;29;20051;-81
2022/03/12 07:09:46;;;;;;;6.78;3.80;;;;;;;2.60;38.12;100473.25;4952010;29;20039;-82
2022/03/12 07:12:17;;;;;;;5.57;2.75;;;;;;;2.61;38.07;100485.28;4945655;29;20038;-80
2022/03/12 07:14:55;;;;;;;5.43;3.40;;;;;;;2.11;38.79;100414.22;4943969;29;20581;-81
2022/03/12 07:17:53;;;;;;;6.40;3.05;;;;;;;1.94;38.19;100371.69;4931594;29;20043;-82
2022/03/12 07:20:24;;;;;;;;;;;;;;;2.83;37.85;100504.91;4937485;29;20075;-81
2022/03/12 07:22:53;;;;;;;9.75;3.72;;;;;;;2.39;38.40;100432.31;5005073;23;19927;-84
2022/03/12 07:25:30;;;;;;;7.78;3.83;;;;;;;2.53;38.30;100435.34;4915741;29;20115;-79
2022/03/12 07:28:00;;;;;;;8.93;4.00;;;;;;;2.64;38.31;100441.72;4914462;29;20047;-81
2022/03/12 07:30:32;;;;;;;9.68;4.35;;;;;;;2.82;38.13;100476.56;4917282;29;20070;-80
2022/03/12 07:33:05;;;;;;;8.93;4.07;;;;;;;2.65;37.86;100435.75;4921529;29;20047;-84
2022/03/12 07:35:41;;;;;;;12.23;3.78;;;;;;;2.89;38.63;100442.53;4927953;29;20433;-79
2022/03/12 07:38:13;;;;;;;14.05;5.07;;;;;;;3.38;37.76;100474.06;4931030;29;20075;-80
2022/03/12 07:40:43;;;;;;;7.43;3.67;;;;;;;3.11;37.96;100433.78;4911706;29;20044;-80
2022/03/12 07:46:46;;;;;;;7.05;4.28;;;;;;;3.54;37.88;100489.97;4928755;29;20441;-80
2022/03/12 07:49:13;;;;;;;10.95;4.22;;;;;;;2.97;37.67;100397.38;4919322;29;20503;-79
2022/03/12 07:51:50;;;;;;;9.30;4.03;;;;;;;3.09;37.41;100411.44;4922618;29;20187;-79
2022/03/12 07:54:17;;;;;;;8.77;4.45;;;;;;;3.72;37.93;100511.16;4913868;29;20519;-80
2022/03/12 07:56:45;;;;;;;9.38;3.67;;;;;;;3.61;38.00;100468.75;4919656;29;20115;-81
2022/03/12 08:00:07;;;;;;;8.18;4.20;;;;;;;3.67;37.87;100468.06;4920897;29;20044;-83
2022/03/12 08:03:14;;;;;;;9.90;3.90;;;;;;;3.50;37.81;100440.13;4892399;29;20055;-81
2022/03/12 08:06:30;;;;;;;10.75;4.20;;;;;;;4.00;37.82;100513.69;4903216;29;20044;-81
2022/03/12 08:14:17;;;;;;;11.13;4.40;;;;;;;4.50;37.58;100516.81;4893552;29;20057;-82
2022/03/12 08:17:47;;;;;;;6.15;4.20;;;;;;;4.73;37.46;100511.41;4876010;29;20300;-80
2022/03/12 08:23:43;;;;;;;32.88;5.40;;;;;;;4.36;36.34;100399.59;4788186;29;20058;-82
2022/03/12 08:31:09;;;;;;;7.57;3.72;;;;;;;4.50;36.71;100444.66;4815519;29;20699;-79
2022/03/12 08:33:38;;;;;;;8.88;4.63;;;;;;;4.79;36.40;100436.78;4869791;29;20119;-81
2022/03/12 08:36:23;;;;;;;7.82;4.25;;;;;;;4.67;36.69;100390.91;4890656;29;20054;-81
2022/03/12 08:38:50;;;;;;;8.75;4.68;;;;;;;4.92;35.75;100462.88;4904911;29;20036;-82
2022/03/12 08:41:18;;;;;;;8.65;3.85;;;;;;;4.72;36.92;100447.78;4911364;29;20040;-81
2022/03/12 08:43:47;;;;;;;7.70;4.53;;;;;;;4.93;36.56;100454.31;4900623;29;20072;-79
2022/03/12 08:46:16;;;;;;;7.68;4.50;;;;;;;5.02;36.99;100474.28;4899383;29;20127;-80
2022/03/12 08:48:47;;;;;;;9.13;4.53;;;;;;;5.41;37.09;100507.03;4883599;29;20056;-80
2022/03/12 08:51:26;;;;;;;8.73;4.00;;;;;;;5.60;36.11;100510.94;4913576;29;20127;-82
2022/03/12 08:54:05;;;;;;;12.27;4.30;;;;;;;5.36;36.08;100496.63;4902137;29;20093;-78
2022/03/12 08:57:15;;;;;;;;;;;;;;;;;;;;;
2022/03/12 08:59:44;;;;;;;7.45;4.75;;;;;;;4.97;36.60;100435.47;4915150;29;20074;-82
2022/03/12 09:02:37;;;;;;;8.43;4.03;;;;;;;4.87;36.58;100402.56;4902662;29;20063;-81
2022/03/12 09:05:12;;;;;;;6.40;4.47;;;;;;;5.23;36.37;100461.03;4921156;29;20060;-81
2022/03/12 09:07:57;;;;;;;7.53;4.35;;;;;;;4.87;36.20;100439.53;4904826;29;20131;-80
2022/03/12 09:10:30;;;;;;;8.55;4.63;;;;;;;4.49;36.22;100430.03;4906371;29;20076;-81
2022/03/12 09:14:18;;;;;;;;;;;;;;;;;;;;;
2022/03/12 09:17:10;;;;;;;9.85;5.60;;;;;;;5.00;36.90;100525.84;4917361;29;20427;-81
2022/03/12 09:20:03;;;;;;;10.57;5.45;;;;;;;4.77;37.48;100528.69;4911511;29;20052;-80
2022/03/12 09:23:34;;;;;;;9.55;5.50;;;;;;;4.17;37.30;100426.59;4917777;29;20049;-82
2022/03/12 09:26:01;;;;;;;12.32;5.97;;;;;;;4.30;37.61;100461.28;4838250;29;20058;-79
2022/03/12 09:28:32;;;;;;;11.07;6.20;;;;;;;4.40;37.26;100458.13;4911070;29;20438;-80
2022/03/12 09:32:39;;;;;;;10.40;6.32;;;;;;;4.89;36.99;100522.97;4882217;29;20049;-80
2022/03/12 09:36:16;;;;;;;12.43;5.97;;;;;;;4.46;36.92;100459.97;4908833;29;20057;-80
2022/03/12 09:40:03;;;;;;;9.35;5.88;;;;;;;4.93;37.26;100531.69;4890782;29;20468;-83
2022/03/12 09:44:07;;;;;;;10.98;5.78;;;;;;;4.98;36.58;100530.97;4838106;29;20054;-82
2022/03/12 09:47:18;;;;;;;9.48;5.78;;;;;;;3.90;36.22;100414.69;4848690;29;20060;-83
2022/03/12 09:49:52;;;;;;;8.35;5.57;;;;;;;4.39;36.94;100530.25;4921532;29;20119;-82
2022/03/12 09:56:26;;;;;;;7.60;4.93;;;;;;;4.58;37.76;100529.03;4896315;29;20057;-80
2022/03/12 09:59:05;;;;;;;11.38;5.55;;;;;;;4.20;38.01;100473.91;4906859;29;20048;-82
2022/03/12 10:01:43;;;;;;;7.70;4.55;;;;;;;4.63;37.39;100537.75;4880109;29;20052;-83
2022/03/12 10:04:36;;;;;;;7.70;4.68;;;;;;;4.11;37.46;100445.31;4885844;29;20056;-83
2022/03/12 10:07:09;;;;;;;9.23;4.93;;;;;;;4.71;37.67;100533.69;4874968;29;20056;-83
2022/03/12 10:10:47;;;;;;;12.77;6.20;;;;;;;4.18;38.06;100416.31;4868051;29;20052;-80
2022/03/12 10:13:53;;;;;;;9.07;5.22;;;;;;;4.93;37.78;100536.84;4861417;29;20085;-82
2022/03/12 10:16:36;;;;;;;8.32;5.40;;;;;;;4.98;37.33;100509.44;4886827;29;20048;-80
2022/03/12 10:19:20;;;;;;;8.73;4.57;;;;;;;5.17;37.14;100533.16;4904065;29;20135;-83
2022/03/12 10:22:20;;;;;;;7.10;4.53;;;;;;;4.82;37.40;100472.94;4897954;29;20033;-85
2022/03/12 10:26:51;;;;;;;9.50;4.50;;;;;;;5.14;37.61;100474.59;4820147;29;20053;-85
2022/03/12 10:33:33;;;;;;;8.50;4.07;;;;;;;5.84;37.21;100520.94;4872237;29;20101;-86
2022/03/12 10:36:18;;;;;;;9.57;4.80;;;;;;;5.54;36.57;100480.66;4887711;29;20112;-87
2022/03/12 10:38:52;;;;;;;6.75;4.47;;;;;;;5.80;36.37;100538.91;4881162;29;20068;-88
2022/03/12 10:41:31;;;;;;;7.20;4.43;;;;;;;5.56;36.23;100545.25;4889810;29;20085;-84
2022/03/12 10:44:11;;;;;;;10.15;5.22;;;;;;;5.04;36.74;100470.06;4914651;29;20048;-84
2022/03/12 10:47:36;;;;;;;8.23;4.65;;;;;;;4.85;36.48;100425.75;4923125;29;20054;-83
2022/03/12 10:51:01;;;;;;;10.88;4.60;;;;;;;5.04;37.39;100467.47;4921234;29;20055;-83
2022/03/12 10:55:17;;;;;;;;;;;;;;;;;;;;;
2022/03/12 11:23:26;;;;;;;;;;;;;;;;;;;;;
2022/03/12 11:33:32;;;;;;;;;;;;;;;;;;;;;
2022/03/12 11:36:18;;;;;;;13.90;5.85;;;;;;;4.39;37.22;100425.44;4880523;29;20080;-85
2022/03/12 11:38:52;;;;;;;10.90;5.63;;;;;;;4.49;37.40;100442.03;4890765;29;20299;-84
2022/03/12 11:41:37;;;;;;;10.73;5.60;;;;;;;5.22;37.06;100571.13;4876067;29;20041;-84
2022/03/12 11:44:09;;;;;;;17.50;6.25;;;;;;;4.51;37.12;100443.81;4874202;29;20057;-84
2022/03/12 11:46:38;;;;;;;12.80;5.65;;;;;;;5.27;37.25;100563.50;4875236;29;20061;-83
2022/03/12 11:49:10;;;;;;;11.45;5.65;;;;;;;4.62;37.03;100448.38;4873406;29;20052;-86
2022/03/12 11:51:47;;;;;;;11.23;5.32;;;;;;;4.91;37.16;100497.25;4859703;29;20054;-85
2022/03/12 11:54:13;;;;;;;;;;;;;;;5.31;37.59;100556.69;4875450;29;20094;-84
2022/03/12 11:56:49;;;;;;;12.40;6.10;;;;;;;5.07;36.88;100517.44;4859169;29;19943;-84
2022/03/12 11:59:18;;;;;;;14.40;5.93;;;;;;;4.74;36.96;100460.69;4886602;29;20045;-83
2022/03/12 12:05:18;;;;;;;10.13;5.40;;;;;;;4.75;36.30;100434.94;4852605;29;20050;-85
2022/03/12 12:07:51;;;;;;;10.38;5.78;;;;;;;5.02;36.72;100495.78;4838555;29;20044;-84
2022/03/12 12:10:32;;;;;;;14.52;5.75;;;;;;;5.26;36.14;100560.06;4855031;29;20058;-83
2022/03/12 12:13:04;;;;;;;;;;;;;;;5.22;36.84;100570.25;4839371;29;20060;-86
2022/03/12 12:15:47;;;;;;;12.95;5.20;;;;;;;4.79;37.23;100498.66;4872638;29;20376;-83
2022/03/12 12:18:53;;;;;;;14.07;5.75;;;;;;;5.28;37.30;100583.31;4813685;29;20130;-82
2022/03/12 12:21:20;;;;;;;13.38;5.95;;;;;;;5.35;37.23;100574.00;4853403;29;20050;-82
2022/03/12 12:24:20;;;;;;;10.18;5.47;;;;;;;4.87;36.98;100498.00;4855762;29;20507;-84
2022/03/12 12:30:29;;;;;;;8.35;5.38;;;;;;;4.71;36.87;100505.34;3180551;27;20062;-84
2022/03/12 12:33:46;;;;;;;9.93;5.68;;;;;;;4.48;37.58;100533.06;4797912;29;20118;-83
2022/03/12 12:40:14;;;;;;;;;;;;;;;;;;;;;
2022/03/12 12:46:20;;;;;;;10.43;5.90;;;;;;;4.75;37.95;100589.66;1287745;27;20050;-83
2022/03/12 12:52:57;;;;;;;11.45;6.07;;;;;;;4.20;38.17;100532.28;4832303;29;20045;-84
2022/03/12 12:55:27;;;;;;;16.42;6.63;;;;;;;4.13;38.46;100536.38;4820385;29;20054;-84
2022/03/12 12:58:27;;;;;;;12.82;5.97;;;;;;;4.48;38.44;100595.81;4802640;29;20042;-81
2022/03/12 13:01:02;;;;;;;12.77;6.28;;;;;;;3.67;39.18;100470.63;4799217;29;20050;-84
2022/03/12 13:04:06;;;;;;;13.65;5.75;;;;;;;4.13;38.36;100561.28;4795148;29;20046;-84
2022/03/12 13:06:52;;;;;;;11.48;5.43;;;;;;;3.90;38.92;100504.81;4810776;29;20062;-83
2022/03/12 13:09:56;;;;;;;10.98;5.43;;;;;;;4.53;38.68;100590.78;4799394;30;20063;-83
2022/03/12 13:12:51;;;;;;;9.77;5.80;;;;;;;3.79;38.72;100467.56;4784091;30;20055;-83
2022/03/12 13:15:22;;;;;;;12.80;5.55;;;;;;;4.57;39.00;100595.19;4734475;30;20779;-84
2022/03/12 13:17:54;;;;;;;12.38;5.55;;;;;;;4.04;38.91;100536.13;4793671;30;20055;-82
2022/03/12 13:20:42;;;;;;;11.15;5.97;;;;;;;4.07;39.24;100546.53;4771084;30;20062;-83
2022/03/12 13:23:09;;;;;;;14.07;5.75;;;;;;;3.94;39.31;100546.97;4792372;30;20051;-81
2022/03/12 13:26:14;;;;;;;11.57;6.13;;;;;;;3.74;39.30;100517.25;4775566;30;20062;-84
2022/03/12 13:29:09;;;;;;;10.93;5.72;;;;;;;4.01;39.62;100570.38;4747336;30;20096;-83
2022/03/12 13:31:38;;;;;;;8.50;5.18;;;;;;;3.88;39.65;100542.50;4758047;30;20062;-84
2022/03/12 13:34:18;;;;;;;11.95;6.07;;;;;;;4.17;39.12;100622.38;4779096;30;20068;-83
2022/03/12 13:36:59;;;;;;;13.15;6.53;;;;;;;3.76;40.02;100537.88;4793194;30;20140;-81
2022/03/12 13:39:33;;;;;;;10.95;6.38;;;;;;;3.99;39.94;100576.31;4799479;29;20051;-81
2022/03/12 13:42:33;;;;;;;10.18;5.60;;;;;;;3.97;40.04;100594.31;4823724;29;20049;-83